createdAt,value
2024-05-09T00:00:39.979Z,59.90
2024-05-09T00:03:09.269Z,60.00
2024-05-09T00:05:37.471Z,60.00
2024-05-09T00:08:04.671Z,60.00
2024-05-09T00:10:37.416Z,60.10
2024-05-09T00:13:08.919Z,60.10
2024-05-09T00:15:36.519Z,60.20
2024-05-09T00:18:04.544Z,60.20
2024-05-09T00:20:38.536Z,60.30
2024-05-09T00:23:11.787Z,60.30
2024-05-09T00:25:42.548Z,60.30
2024-05-09T00:28:09.775Z,60.40
2024-05-09T00:30:37.439Z,60.40
2024-05-09T00:33:06.302Z,60.40
2024-05-09T00:35:34.637Z,60.50
2024-05-09T00:38:01.572Z,60.50
2024-05-09T00:40:39.456Z,60.60
2024-05-09T00:43:08.877Z,60.70
2024-05-09T00:45:35.851Z,60.70
2024-05-09T00:48:06.206Z,60.70
2024-05-09T00:50:36.936Z,60.70
2024-05-09T00:53:08.116Z,60.80
2024-05-09T00:55:37.519Z,60.80
2024-05-09T00:58:04.943Z,60.90
2024-05-09T01:00:39.077Z,61.00
2024-05-09T01:03:08.814Z,61.00
2024-05-09T01:05:38.863Z,61.10
2024-05-09T01:08:06.096Z,61.10
2024-05-09T01:10:36.514Z,61.20
2024-05-09T01:13:04.205Z,61.20
2024-05-09T01:15:31.223Z,61.20
2024-05-09T01:18:01.905Z,61.10
2024-05-09T01:20:39.929Z,61.10
2024-05-09T01:23:10.313Z,61.10
2024-05-09T01:25:37.392Z,61.20
2024-05-09T01:28:04.443Z,61.20
2024-05-09T01:30:35.481Z,61.10
2024-05-09T01:33:05.388Z,61.20
2024-05-09T01:35:33.317Z,61.20
2024-05-09T01:38:00.110Z,61.20
2024-05-09T01:40:36.309Z,61.30
2024-05-09T01:43:06.015Z,61.40
2024-05-09T01:45:32.969Z,61.50
2024-05-09T01:47:59.976Z,61.50
2024-05-09T01:50:36.757Z,61.60
2024-05-09T01:53:12.645Z,61.60
2024-05-09T01:55:40.045Z,61.50
2024-05-09T01:58:10.022Z,61.50
2024-05-09T02:00:40.840Z,61.60
2024-05-09T02:06:03.666Z,61.80
2024-05-09T02:08:30.592Z,62.00
2024-05-09T02:10:57.453Z,62.10
2024-05-09T02:13:24.269Z,62.10
2024-05-09T02:15:55.045Z,62.20
2024-05-09T02:18:24.327Z,62.20
2024-05-09T02:20:53.668Z,62.20
2024-05-09T02:23:20.435Z,62.30
2024-05-09T02:25:47.181Z,62.40
2024-05-09T02:28:13.881Z,62.40
2024-05-09T02:30:42.192Z,62.50
2024-05-09T02:33:11.486Z,62.50
2024-05-09T02:35:40.265Z,62.50
2024-05-09T02:38:08.561Z,62.50
2024-05-09T02:40:39.413Z,62.30
2024-05-09T02:43:08.020Z,62.40
2024-05-09T02:45:35.273Z,62.40
2024-05-09T02:48:02.583Z,62.30
2024-05-09T02:50:36.901Z,62.40
2024-05-09T02:53:09.712Z,62.30
2024-05-09T02:55:37.596Z,62.30
2024-05-09T02:58:04.417Z,62.20
2024-05-09T03:00:38.195Z,62.00
2024-05-09T03:03:09.455Z,61.90
2024-05-09T03:05:37.780Z,61.80
2024-05-09T03:08:04.870Z,61.70
2024-05-09T03:10:36.159Z,61.70
2024-05-09T03:13:15.489Z,61.80
2024-05-09T03:15:43.528Z,61.80
2024-05-09T03:18:10.984Z,61.80
2024-05-09T03:20:39.025Z,61.80
2024-05-09T03:23:07.837Z,61.70
2024-05-09T03:25:37.808Z,61.60
2024-05-09T03:28:04.674Z,61.50
2024-05-09T03:30:39.818Z,61.50
2024-05-09T03:33:19.908Z,61.50
2024-05-09T03:35:48.048Z,61.50
2024-05-09T03:38:15.373Z,61.50
2024-05-09T03:40:45.856Z,61.40
2024-05-09T03:43:12.885Z,61.40
2024-05-09T03:45:39.716Z,61.40
2024-05-09T03:48:06.746Z,61.40
2024-05-09T03:50:35.830Z,61.50
2024-05-09T03:53:03.726Z,61.50
2024-05-09T03:55:31.176Z,61.50
2024-05-09T03:57:58.034Z,61.50
2024-05-09T04:00:35.403Z,61.60
2024-05-09T04:03:07.707Z,61.80
2024-05-09T04:05:37.966Z,62.00
2024-05-09T04:08:07.455Z,61.90
2024-05-09T04:10:35.206Z,61.80
2024-05-09T04:13:03.260Z,61.90
2024-05-09T04:15:30.489Z,62.00
2024-05-09T04:17:57.501Z,62.10
2024-05-09T04:20:33.937Z,62.20
2024-05-09T04:23:06.134Z,62.30
2024-05-09T04:25:33.083Z,62.40
2024-05-09T04:28:02.066Z,62.60
2024-05-09T04:30:37.564Z,62.80
2024-05-09T04:33:11.993Z,63.00
2024-05-09T04:35:42.175Z,63.20
2024-05-09T04:38:09.525Z,63.40
2024-05-09T04:40:37.488Z,63.50
2024-05-09T04:43:05.296Z,63.60
2024-05-09T04:45:32.130Z,63.60
2024-05-09T04:47:59.173Z,63.70
2024-05-09T04:50:35.232Z,63.80
2024-05-09T04:53:05.570Z,63.90
2024-05-09T04:55:32.938Z,63.90
2024-05-09T04:57:59.780Z,64.10
2024-05-09T05:00:34.541Z,64.10
2024-05-09T05:03:06.909Z,64.10
2024-05-09T05:05:36.147Z,64.20
2024-05-09T05:08:05.533Z,64.40
2024-05-09T05:10:36.219Z,64.50
2024-05-09T05:13:17.142Z,64.70
2024-05-09T05:15:47.778Z,64.80
2024-05-09T05:18:17.698Z,64.90
2024-05-09T05:20:45.094Z,64.90
2024-05-09T05:23:16.398Z,64.90
2024-05-09T05:25:43.818Z,65.10
2024-05-09T05:28:10.924Z,65.10
2024-05-09T05:30:38.083Z,65.10
2024-05-09T05:33:05.894Z,65.10
2024-05-09T05:35:33.124Z,65.10
2024-05-09T05:38:00.166Z,65.20
2024-05-09T05:40:33.401Z,65.20
2024-05-09T05:43:08.333Z,65.30
2024-05-09T05:45:35.125Z,65.30
2024-05-09T05:48:03.517Z,65.30
2024-05-09T05:50:35.848Z,65.40
2024-05-09T05:53:08.411Z,65.50
2024-05-09T05:55:35.962Z,65.50
2024-05-09T05:58:02.795Z,65.30
2024-05-09T06:00:37.313Z,65.20
2024-05-09T06:03:06.677Z,65.00
2024-05-09T06:05:33.842Z,65.00
2024-05-09T06:08:00.933Z,65.00
2024-05-09T06:10:37.180Z,65.00
2024-05-09T06:13:06.638Z,64.90
2024-05-09T06:15:33.380Z,64.90
2024-05-09T06:18:00.346Z,65.00
2024-05-09T06:20:34.926Z,65.00
2024-05-09T06:23:04.504Z,65.00
2024-05-09T06:25:31.535Z,64.90
2024-05-09T06:27:59.036Z,64.90
2024-05-09T06:30:36.807Z,64.90
2024-05-09T06:33:07.322Z,64.90
2024-05-09T06:35:34.479Z,64.80
2024-05-09T06:38:01.753Z,64.90
2024-05-09T06:40:36.554Z,64.90
2024-05-09T06:43:10.557Z,65.00
2024-05-09T06:45:39.479Z,64.90
2024-05-09T06:48:06.816Z,64.90
2024-05-09T06:50:37.627Z,65.00
2024-05-09T06:53:06.078Z,65.10
2024-05-09T06:55:32.968Z,65.40
2024-05-09T06:57:59.787Z,65.30
2024-05-09T07:00:34.795Z,65.00
2024-05-09T07:03:13.840Z,64.90
2024-05-09T07:05:43.296Z,64.80
2024-05-09T07:08:10.343Z,64.80
2024-05-09T07:10:37.461Z,64.80
2024-05-09T07:13:07.939Z,64.70
2024-05-09T07:15:34.646Z,65.20
2024-05-09T07:18:01.483Z,65.70
2024-05-09T07:20:34.326Z,66.30
2024-05-09T07:23:02.559Z,66.20
2024-05-09T07:25:30.892Z,66.10
2024-05-09T07:27:57.656Z,65.90
2024-05-09T07:30:32.544Z,65.90
2024-05-09T07:33:01.945Z,65.90
2024-05-09T07:35:29.694Z,65.70
2024-05-09T07:37:56.721Z,65.70
2024-05-09T07:40:32.656Z,65.60
2024-05-09T07:43:03.622Z,65.50
2024-05-09T07:45:47.721Z,65.20
2024-05-09T07:52:24.308Z,64.50
2024-05-09T07:53:46.096Z,64.40
2024-05-09T07:56:16.646Z,64.20
2024-05-09T07:58:43.648Z,64.00
2024-05-09T08:01:10.533Z,63.80
2024-05-09T08:03:37.847Z,63.80
2024-05-09T08:06:04.888Z,63.60
2024-05-09T08:08:31.605Z,63.30
2024-05-09T08:10:59.541Z,63.20
2024-05-09T08:13:26.287Z,63.20
2024-05-09T08:15:55.411Z,63.30
2024-05-09T08:18:22.289Z,63.20
2024-05-09T08:20:52.363Z,63.20
2024-05-09T08:23:19.208Z,63.20
2024-05-09T08:25:45.986Z,63.10
2024-05-09T08:28:13.039Z,62.70
2024-05-09T08:30:40.086Z,62.10
2024-05-09T08:33:07.790Z,61.50
2024-05-09T08:35:35.251Z,60.90
2024-05-09T08:38:07.832Z,60.80
2024-05-09T08:40:37.254Z,61.20
2024-05-09T08:43:13.205Z,61.60
2024-05-09T08:45:43.614Z,61.80
2024-05-09T08:48:12.595Z,61.60
2024-05-09T08:50:43.098Z,61.10
2024-05-09T08:53:10.162Z,60.60
2024-05-09T08:55:40.618Z,60.50
2024-05-09T08:58:14.990Z,60.80
2024-05-09T09:00:42.988Z,61.60
2024-05-09T09:03:11.388Z,61.90
2024-05-09T09:05:39.151Z,61.90
2024-05-09T09:08:07.372Z,61.80
2024-05-09T09:10:59.694Z,61.60
2024-05-09T09:13:26.734Z,61.30
2024-05-09T09:15:57.756Z,60.70
2024-05-09T09:18:26.034Z,60.20
2024-05-09T09:20:53.611Z,60.20
2024-05-09T09:23:20.380Z,60.00
2024-05-09T09:25:49.571Z,60.10
2024-05-09T09:28:18.638Z,60.30
2024-05-09T09:30:45.583Z,60.30
2024-05-09T09:33:12.545Z,60.50
2024-05-09T09:35:40.212Z,60.90
2024-05-09T09:38:07.263Z,61.10
2024-05-09T09:40:37.520Z,61.10
2024-05-09T09:43:12.031Z,61.40
2024-05-09T09:45:39.398Z,61.50
2024-05-09T09:48:06.719Z,61.20
2024-05-09T09:50:35.269Z,60.90
2024-05-09T09:53:06.110Z,60.80
2024-05-09T09:55:32.851Z,60.90
2024-05-09T09:57:59.895Z,60.90
2024-05-09T10:00:33.119Z,60.80
2024-05-09T10:03:01.474Z,60.60
2024-05-09T10:05:29.015Z,60.20
2024-05-09T10:07:56.396Z,59.80
2024-05-09T10:10:31.898Z,59.70
2024-05-09T10:13:00.218Z,59.60
2024-05-09T10:15:27.358Z,59.30
2024-05-09T10:17:54.392Z,58.90
2024-05-09T10:20:25.037Z,58.80
2024-05-09T10:22:54.891Z,58.70
2024-05-09T10:25:21.870Z,58.70
2024-05-09T10:27:57.202Z,58.70
2024-05-09T10:32:56.611Z,58.60
2024-05-09T10:35:25.344Z,58.50
2024-05-09T10:37:53.956Z,58.30
2024-05-09T10:40:26.456Z,57.90
2024-05-09T10:42:58.854Z,57.00
2024-05-09T10:45:26.266Z,56.30
2024-05-09T10:47:53.249Z,55.80
2024-05-09T10:50:25.770Z,55.40
2024-05-09T10:52:55.806Z,55.30
2024-05-09T10:55:22.763Z,54.70
2024-05-09T10:57:49.662Z,54.40
2024-05-09T11:00:26.913Z,54.60
2024-05-09T11:02:57.172Z,54.40
2024-05-09T11:05:24.160Z,53.50
2024-05-09T11:07:51.203Z,53.70
2024-05-09T11:10:24.954Z,53.80
2024-05-09T11:12:58.157Z,53.50
2024-05-09T11:15:25.816Z,53.30
2024-05-09T11:17:52.746Z,52.30
2024-05-09T11:20:26.928Z,51.80
2024-05-09T11:22:57.669Z,51.50
2024-05-09T11:25:24.482Z,51.00
2024-05-09T11:27:51.329Z,50.50
2024-05-09T11:30:26.981Z,50.70
2024-05-09T11:33:01.330Z,51.00
2024-05-09T11:35:31.108Z,50.80
2024-05-09T11:37:57.817Z,50.50
2024-05-09T11:40:28.090Z,50.30
2024-05-09T11:42:59.261Z,49.20
2024-05-09T11:45:25.993Z,49.40
2024-05-09T11:47:52.842Z,49.70
2024-05-09T11:50:27.032Z,49.80
2024-05-09T11:52:57.110Z,50.00
2024-05-09T11:55:27.741Z,49.90
2024-05-09T11:57:55.610Z,49.80
2024-05-09T12:00:29.702Z,49.80
2024-05-09T12:03:04.940Z,49.70
2024-05-09T12:05:32.408Z,49.70
2024-05-09T12:07:59.522Z,49.80
2024-05-09T12:10:32.487Z,49.80
2024-05-09T12:13:02.120Z,49.70
2024-05-09T12:15:29.155Z,49.00
2024-05-09T12:18:01.473Z,48.50
2024-05-09T12:20:36.618Z,48.20
2024-05-09T12:23:06.183Z,48.00
2024-05-09T12:25:33.070Z,47.90
2024-05-09T12:28:00.197Z,47.20
2024-05-09T12:30:35.535Z,47.20
2024-05-09T12:33:06.185Z,47.20
2024-05-09T12:35:33.262Z,47.30
2024-05-09T12:38:00.948Z,47.20
2024-05-09T12:40:36.144Z,47.50
2024-05-09T12:43:06.355Z,48.50
2024-05-09T12:45:33.586Z,49.30
2024-05-09T12:48:00.711Z,49.90
2024-05-09T12:50:32.723Z,50.20
2024-05-09T12:53:02.761Z,50.20
2024-05-09T12:55:36.608Z,49.80
2024-05-09T12:58:08.876Z,49.30
2024-05-09T13:00:36.076Z,49.10
2024-05-09T13:03:03.360Z,48.70
2024-05-09T13:05:30.410Z,48.90
2024-05-09T13:07:57.460Z,48.90
2024-05-09T13:10:32.064Z,48.70
2024-05-09T13:13:01.136Z,48.00
2024-05-09T13:15:29.449Z,47.20
2024-05-09T13:17:59.458Z,46.60
2024-05-09T13:20:33.082Z,45.60
2024-05-09T13:23:02.575Z,45.30
2024-05-09T13:25:31.796Z,45.00
2024-05-09T13:27:58.712Z,45.50
2024-05-09T13:30:30.200Z,44.90
2024-05-09T13:33:06.479Z,44.30
2024-05-09T13:35:35.198Z,44.60
2024-05-09T13:38:02.778Z,44.70
2024-05-09T13:40:34.133Z,45.00
2024-05-09T13:43:07.120Z,45.70
2024-05-09T13:45:34.243Z,45.80
2024-05-09T13:48:06.501Z,45.30
2024-05-09T13:50:36.091Z,45.20
2024-05-09T13:53:05.966Z,45.50
2024-05-09T13:55:33.957Z,45.50
2024-05-09T13:58:01.101Z,45.10
2024-05-09T14:03:06.602Z,46.30
2024-05-09T14:05:33.627Z,46.60
2024-05-09T14:08:00.765Z,46.20
2024-05-09T14:10:31.967Z,46.60
2024-05-09T14:12:59.940Z,46.30
2024-05-09T14:15:26.821Z,46.70
2024-05-09T14:17:54.067Z,47.00
2024-05-09T14:20:30.308Z,47.20
2024-05-09T14:23:01.616Z,47.30
2024-05-09T14:25:29.765Z,47.40
2024-05-09T14:27:59.899Z,47.60
2024-05-09T14:30:34.539Z,47.40
2024-05-09T14:33:05.091Z,48.00
2024-05-09T14:35:32.304Z,47.90
2024-05-09T14:37:59.137Z,47.70
2024-05-09T14:40:36.506Z,48.20
2024-05-09T14:43:08.406Z,47.40
2024-05-09T14:45:35.551Z,46.60
2024-05-09T14:48:03.162Z,46.40
2024-05-09T14:50:36.039Z,47.60
2024-05-09T14:53:06.765Z,46.40
2024-05-09T14:55:38.787Z,45.40
2024-05-09T14:58:06.015Z,45.40
2024-05-09T15:00:36.105Z,45.60
2024-05-09T15:03:04.801Z,44.80
2024-05-09T15:05:31.777Z,46.00
2024-05-09T15:07:58.788Z,47.10
2024-05-09T15:10:33.815Z,47.50
2024-05-09T15:13:02.899Z,47.50
2024-05-09T15:15:30.075Z,47.50
2024-05-09T15:17:57.097Z,47.20
2024-05-09T15:20:30.759Z,47.30
2024-05-09T15:23:02.240Z,47.30
2024-05-09T15:25:32.749Z,47.40
2024-05-09T15:27:59.696Z,46.30
2024-05-09T15:32:56.376Z,45.80
2024-05-09T15:35:23.229Z,46.10
2024-05-09T15:37:50.008Z,45.10
2024-05-09T15:40:26.169Z,45.00
2024-05-09T15:43:02.144Z,44.20
2024-05-09T15:45:29.434Z,43.80
2024-05-09T15:47:57.001Z,43.80
2024-05-09T15:50:35.909Z,44.00
2024-05-09T15:53:07.160Z,44.20
2024-05-09T15:55:34.923Z,44.40
2024-05-09T15:58:02.125Z,43.80
2024-05-09T16:00:37.179Z,43.70
2024-05-09T16:03:08.136Z,43.80
2024-05-09T16:05:38.066Z,44.00
2024-05-09T16:08:05.640Z,43.50
2024-05-09T16:10:34.191Z,43.60
2024-05-09T16:13:02.507Z,43.40
2024-05-09T16:15:29.956Z,43.00
2024-05-09T16:17:57.047Z,42.90
2024-05-09T16:22:53.603Z,43.20
2024-05-09T16:25:20.444Z,42.80
2024-05-09T16:27:47.563Z,42.20
2024-05-09T16:30:21.338Z,42.60
2024-05-09T16:32:55.238Z,42.90
2024-05-09T16:35:22.238Z,43.30
2024-05-09T16:37:49.272Z,43.10
2024-05-09T16:40:25.208Z,43.00
2024-05-09T16:43:02.653Z,43.30
2024-05-09T16:45:29.580Z,43.40
2024-05-09T16:47:56.518Z,43.40
2024-05-09T16:50:29.291Z,43.10
2024-05-09T16:52:59.652Z,42.80
2024-05-09T16:55:26.543Z,42.60
2024-05-09T16:57:53.398Z,42.40
2024-05-09T17:00:31.057Z,42.40
2024-05-09T17:03:06.580Z,42.00
2024-05-09T17:05:34.297Z,42.30
2024-05-09T17:08:04.191Z,42.70
2024-05-09T17:10:33.822Z,42.90
2024-05-09T17:13:02.923Z,42.90
2024-05-09T17:15:30.118Z,42.70
2024-05-09T17:17:56.958Z,42.30
2024-05-09T17:20:31.656Z,42.30
2024-05-09T17:23:02.265Z,42.30
2024-05-09T17:25:29.385Z,42.80
2024-05-09T17:27:56.652Z,43.20
2024-05-09T17:30:31.951Z,42.70
2024-05-09T17:33:05.822Z,42.90
2024-05-09T17:35:32.806Z,42.90
2024-05-09T17:38:02.076Z,42.90
2024-05-09T17:40:33.710Z,42.90
2024-05-09T17:43:03.907Z,42.90
2024-05-09T17:45:31.516Z,43.30
2024-05-09T17:48:01.151Z,43.50
2024-05-09T17:50:35.053Z,43.60
2024-05-09T17:53:04.311Z,43.70
2024-05-09T17:55:33.506Z,43.60
2024-05-09T17:58:00.872Z,43.60
2024-05-09T18:00:36.887Z,43.70
2024-05-09T18:03:10.681Z,43.50
2024-05-09T18:05:38.203Z,43.40
2024-05-09T18:08:08.302Z,43.70
2024-05-09T18:10:39.757Z,43.90
2024-05-09T18:13:08.345Z,44.00
2024-05-09T18:15:35.976Z,44.00
2024-05-09T18:18:03.662Z,44.20
2024-05-09T18:20:39.935Z,44.10
2024-05-09T18:23:14.164Z,44.30
2024-05-09T18:25:41.884Z,44.60
2024-05-09T18:28:08.832Z,44.60
2024-05-09T18:30:37.098Z,44.80
2024-05-09T18:33:09.244Z,45.00
2024-05-09T18:35:36.773Z,45.20
2024-05-09T18:38:04.095Z,45.40
2024-05-09T18:40:34.908Z,45.60
2024-05-09T18:43:05.851Z,45.60
2024-05-09T18:45:34.131Z,45.70
2024-05-09T18:48:01.130Z,46.00
2024-05-09T18:50:35.659Z,46.20
2024-05-09T18:53:06.118Z,46.70
2024-05-09T18:55:33.176Z,47.00
2024-05-09T18:58:00.214Z,47.40
2024-05-09T19:00:34.131Z,47.80
2024-05-09T19:03:05.690Z,48.10
2024-05-09T19:05:34.850Z,48.50
2024-05-09T19:08:02.216Z,48.70
2024-05-09T19:10:34.016Z,48.90
2024-05-09T19:13:05.417Z,49.10
2024-05-09T19:15:38.320Z,49.20
2024-05-09T19:18:05.769Z,49.20
2024-05-09T19:20:35.129Z,49.30
2024-05-09T19:23:06.033Z,49.50
2024-05-09T19:25:36.046Z,49.70
2024-05-09T19:28:03.727Z,49.80
2024-05-09T19:30:38.427Z,49.90
2024-05-09T19:33:09.460Z,49.90
2024-05-09T19:35:39.526Z,50.00
2024-05-09T19:38:06.254Z,50.00
2024-05-09T19:40:34.604Z,50.10
2024-05-09T19:43:05.660Z,50.10
2024-05-09T19:45:34.441Z,50.20
2024-05-09T19:48:02.216Z,50.30
2024-05-09T19:50:37.225Z,50.40
2024-05-09T19:53:09.421Z,50.40
2024-05-09T19:55:36.631Z,50.50
2024-05-09T19:58:05.381Z,50.60
2024-05-09T20:00:39.587Z,50.80
2024-05-09T20:03:09.174Z,51.00
2024-05-09T20:05:37.058Z,51.00
2024-05-09T20:08:04.568Z,51.10
2024-05-09T20:10:33.725Z,51.10
2024-05-09T20:13:02.632Z,51.20
2024-05-09T20:15:29.648Z,51.30
2024-05-09T20:17:58.866Z,51.40
2024-05-09T20:20:33.776Z,51.40
2024-05-09T20:23:05.683Z,51.50
2024-05-09T20:25:34.916Z,51.60
2024-05-09T20:28:01.684Z,51.70
2024-05-09T20:30:32.443Z,51.70
2024-05-09T20:33:05.308Z,51.80
2024-05-09T20:35:33.692Z,51.90
2024-05-09T20:38:01.935Z,52.00
2024-05-09T20:40:34.050Z,52.10
2024-05-09T20:43:04.467Z,52.20
2024-05-09T20:45:34.115Z,52.40
2024-05-09T20:48:01.386Z,52.50
2024-05-09T20:50:36.527Z,52.50
2024-05-09T20:53:11.066Z,52.60
2024-05-09T20:55:38.167Z,52.70
2024-05-09T20:58:05.154Z,52.80
2024-05-09T21:00:39.821Z,52.90
2024-05-09T21:03:10.021Z,53.00
2024-05-09T21:05:37.156Z,53.20
2024-05-09T21:08:04.245Z,53.30
2024-05-09T21:10:33.344Z,53.40
2024-05-09T21:13:01.886Z,53.50
2024-05-09T21:15:29.428Z,53.60
2024-05-09T21:17:56.322Z,53.80
2024-05-09T21:20:28.843Z,53.90
2024-05-09T21:22:58.298Z,54.00
2024-05-09T21:25:25.128Z,54.00
2024-05-09T21:27:52.019Z,54.00
2024-05-09T21:30:27.903Z,54.10
2024-05-09T21:33:04.693Z,54.20
2024-05-09T21:35:33.783Z,54.30
2024-05-09T21:38:04.411Z,54.30
2024-05-09T21:40:34.697Z,54.50
2024-05-09T21:43:03.625Z,54.60
2024-05-09T21:45:30.658Z,54.70
2024-05-09T21:47:57.525Z,54.80
2024-05-09T21:50:32.174Z,54.90
2024-05-09T21:53:06.192Z,55.00
2024-05-09T21:55:33.185Z,55.00
2024-05-09T21:58:00.310Z,55.20
2024-05-09T22:00:34.714Z,55.20
2024-05-09T22:03:07.979Z,55.30
2024-05-09T22:05:35.888Z,55.50
2024-05-09T22:08:03.034Z,55.40
2024-05-09T22:10:34.392Z,55.60
2024-05-09T22:13:04.162Z,55.70
2024-05-09T22:15:33.642Z,55.80
2024-05-09T22:18:02.909Z,55.90
2024-05-09T22:20:36.639Z,56.10
2024-05-09T22:23:05.686Z,56.00
2024-05-09T22:25:32.998Z,56.10
2024-05-09T22:28:01.125Z,56.10
2024-05-09T22:30:35.628Z,56.10
2024-05-09T22:33:06.826Z,56.40
2024-05-09T22:35:33.823Z,56.50
2024-05-09T22:38:00.732Z,56.70
2024-05-09T22:40:38.544Z,56.80
2024-05-09T22:43:13.599Z,56.80
2024-05-09T22:45:40.778Z,56.80
2024-05-09T22:48:10.310Z,56.70
2024-05-09T22:50:37.222Z,56.80
2024-05-09T22:53:06.126Z,56.80
2024-05-09T22:55:33.004Z,56.90
2024-05-09T22:57:59.828Z,57.10
2024-05-09T23:00:31.489Z,57.20
2024-05-09T23:03:00.250Z,57.30
2024-05-09T23:05:27.307Z,57.30
2024-05-09T23:07:54.187Z,57.30
2024-05-09T23:10:28.153Z,57.60
2024-05-09T23:13:01.512Z,57.50
2024-05-09T23:15:28.513Z,57.60
2024-05-09T23:17:58.775Z,57.60
2024-05-09T23:20:35.845Z,57.40
2024-05-09T23:23:10.064Z,57.50
2024-05-09T23:25:38.097Z,57.50
2024-05-09T23:28:05.505Z,57.60
2024-05-09T23:30:37.737Z,57.70
2024-05-09T23:33:10.372Z,57.70
2024-05-09T23:35:37.483Z,57.70
2024-05-09T23:38:05.246Z,57.80
2024-05-09T23:43:02.530Z,57.80
2024-05-09T23:45:29.366Z,57.90
2024-05-09T23:47:56.365Z,57.90
2024-05-09T23:50:30.645Z,57.80
2024-05-09T23:53:01.396Z,58.00
2024-05-09T23:55:28.147Z,58.00
2024-05-09T23:57:55.171Z,57.90
